sensor_id;sensor_type;location;lat;lon;timestamp;P1;durP1;ratioP1;P2;durP2;ratioP2
40256;SDS011;25977;45.462;9.210;2023-12-28T00:00:04;27.35;;;15.25;;
40256;SDS011;25977;45.462;9.210;2023-12-28T00:02:31;26.50;;;16.20;;
40256;SDS011;25977;45.462;9.210;2023-12-28T00:04:56;24.83;;;17.23;;
40256;SDS011;25977;45.462;9.210;2023-12-28T00:07:22;27.85;;;15.88;;
40256;SDS011;25977;45.462;9.210;2023-12-28T00:09:48;22.80;;;15.18;;
40256;SDS011;25977;45.462;9.210;2023-12-28T00:12:14;33.22;;;15.48;;
40256;SDS011;25977;45.462;9.210;2023-12-28T00:14:40;30.23;;;17.70;;
40256;SDS011;25977;45.462;9.210;2023-12-28T00:17:05;29.85;;;16.00;;
40256;SDS011;25977;45.462;9.210;2023-12-28T00:19:31;27.58;;;15.10;;
40256;SDS011;25977;45.462;9.210;2023-12-28T00:21:57;22.52;;;15.50;;
40256;SDS011;25977;45.462;9.210;2023-12-28T00:24:22;25.80;;;15.95;;
40256;SDS011;25977;45.462;9.210;2023-12-28T00:26:48;21.98;;;15.80;;
40256;SDS011;25977;45.462;9.210;2023-12-28T00:29:14;29.80;;;16.05;;
40256;SDS011;25977;45.462;9.210;2023-12-28T00:31:40;30.65;;;17.08;;
40256;SDS011;25977;45.462;9.210;2023-12-28T00:34:05;26.45;;;15.15;;
40256;SDS011;25977;45.462;9.210;2023-12-28T00:36:31;25.10;;;15.98;;
40256;SDS011;25977;45.462;9.210;2023-12-28T00:38:57;21.27;;;16.20;;
40256;SDS011;25977;45.462;9.210;2023-12-28T00:41:23;26.63;;;16.67;;
40256;SDS011;25977;45.462;9.210;2023-12-28T00:43:48;26.67;;;18.73;;
40256;SDS011;25977;45.462;9.210;2023-12-28T00:46:14;30.83;;;18.80;;
40256;SDS011;25977;45.462;9.210;2023-12-28T00:48:40;28.48;;;18.83;;
40256;SDS011;25977;45.462;9.210;2023-12-28T00:51:06;29.05;;;18.98;;
40256;SDS011;25977;45.462;9.210;2023-12-28T00:53:32;28.25;;;19.05;;
40256;SDS011;25977;45.462;9.210;2023-12-28T00:55:58;31.27;;;18.65;;
40256;SDS011;25977;45.462;9.210;2023-12-28T00:58:23;30.10;;;19.25;;
40256;SDS011;25977;45.462;9.210;2023-12-28T01:00:49;26.77;;;19.83;;
40256;SDS011;25977;45.462;9.210;2023-12-28T01:03:18;32.47;;;20.58;;
40256;SDS011;25977;45.462;9.210;2023-12-28T01:05:45;37.90;;;20.67;;
40256;SDS011;25977;45.462;9.210;2023-12-28T01:08:12;32.83;;;20.63;;
40256;SDS011;25977;45.462;9.210;2023-12-28T01:10:38;27.98;;;19.10;;
40256;SDS011;25977;45.462;9.210;2023-12-28T01:13:04;38.10;;;19.45;;
40256;SDS011;25977;45.462;9.210;2023-12-28T01:15:30;35.53;;;21.58;;
40256;SDS011;25977;45.462;9.210;2023-12-28T01:17:56;29.05;;;19.70;;
40256;SDS011;25977;45.462;9.210;2023-12-28T01:20:23;31.58;;;20.00;;
40256;SDS011;25977;45.462;9.210;2023-12-28T01:22:49;29.42;;;19.88;;
40256;SDS011;25977;45.462;9.210;2023-12-28T01:25:15;33.42;;;21.50;;
40256;SDS011;25977;45.462;9.210;2023-12-28T01:27:41;30.95;;;20.27;;
40256;SDS011;25977;45.462;9.210;2023-12-28T01:30:07;35.15;;;21.50;;
40256;SDS011;25977;45.462;9.210;2023-12-28T01:32:33;33.55;;;20.55;;
40256;SDS011;25977;45.462;9.210;2023-12-28T01:34:58;29.35;;;19.30;;
40256;SDS011;25977;45.462;9.210;2023-12-28T01:37:24;32.17;;;19.98;;
40256;SDS011;25977;45.462;9.210;2023-12-28T01:39:50;28.98;;;20.15;;
40256;SDS011;25977;45.462;9.210;2023-12-28T01:42:15;31.13;;;20.02;;
40256;SDS011;25977;45.462;9.210;2023-12-28T01:44:41;30.50;;;19.98;;
40256;SDS011;25977;45.462;9.210;2023-12-28T01:47:07;30.55;;;19.33;;
40256;SDS011;25977;45.462;9.210;2023-12-28T01:49:33;27.40;;;19.00;;
40256;SDS011;25977;45.462;9.210;2023-12-28T01:52:01;34.22;;;22.27;;
40256;SDS011;25977;45.462;9.210;2023-12-28T01:54:28;28.60;;;20.63;;
40256;SDS011;25977;45.462;9.210;2023-12-28T01:56:54;33.75;;;20.67;;
40256;SDS011;25977;45.462;9.210;2023-12-28T01:59:21;31.70;;;19.85;;
40256;SDS011;25977;45.462;9.210;2023-12-28T02:01:47;31.75;;;21.05;;
40256;SDS011;25977;45.462;9.210;2023-12-28T02:04:13;33.70;;;21.95;;
40256;SDS011;25977;45.462;9.210;2023-12-28T02:06:39;31.30;;;20.98;;
40256;SDS011;25977;45.462;9.210;2023-12-28T02:09:05;41.47;;;21.27;;
40256;SDS011;25977;45.462;9.210;2023-12-28T02:11:31;32.30;;;21.15;;
40256;SDS011;25977;45.462;9.210;2023-12-28T02:13:57;38.13;;;22.50;;
40256;SDS011;25977;45.462;9.210;2023-12-28T02:16:26;31.13;;;20.63;;
40256;SDS011;25977;45.462;9.210;2023-12-28T02:19:00;29.58;;;20.83;;
40256;SDS011;25977;45.462;9.210;2023-12-28T02:21:33;38.42;;;21.55;;
40256;SDS011;25977;45.462;9.210;2023-12-28T02:23:59;34.35;;;21.30;;
40256;SDS011;25977;45.462;9.210;2023-12-28T02:26:25;29.23;;;20.10;;
40256;SDS011;25977;45.462;9.210;2023-12-28T02:28:52;33.17;;;22.05;;
40256;SDS011;25977;45.462;9.210;2023-12-28T02:31:21;33.60;;;20.85;;
40256;SDS011;25977;45.462;9.210;2023-12-28T02:33:58;30.73;;;18.25;;
40256;SDS011;25977;45.462;9.210;2023-12-28T02:36:28;31.27;;;19.90;;
40256;SDS011;25977;45.462;9.210;2023-12-28T02:38:55;30.55;;;20.98;;
40256;SDS011;25977;45.462;9.210;2023-12-28T02:41:24;27.95;;;19.63;;
40256;SDS011;25977;45.462;9.210;2023-12-28T02:43:50;33.83;;;20.55;;
40256;SDS011;25977;45.462;9.210;2023-12-28T02:46:17;27.90;;;19.38;;
40256;SDS011;25977;45.462;9.210;2023-12-28T02:48:43;24.23;;;19.45;;
40256;SDS011;25977;45.462;9.210;2023-12-28T02:51:10;29.67;;;19.73;;
40256;SDS011;25977;45.462;9.210;2023-12-28T02:53:36;25.15;;;18.50;;
40256;SDS011;25977;45.462;9.210;2023-12-28T02:56:01;32.60;;;19.17;;
40256;SDS011;25977;45.462;9.210;2023-12-28T02:58:27;31.40;;;20.48;;
40256;SDS011;25977;45.462;9.210;2023-12-28T03:00:53;32.90;;;21.08;;
40256;SDS011;25977;45.462;9.210;2023-12-28T03:03:18;31.63;;;20.02;;
40256;SDS011;25977;45.462;9.210;2023-12-28T03:05:44;26.55;;;20.80;;
40256;SDS011;25977;45.462;9.210;2023-12-28T03:08:10;28.30;;;20.38;;
40256;SDS011;25977;45.462;9.210;2023-12-28T03:10:35;29.70;;;19.17;;
40256;SDS011;25977;45.462;9.210;2023-12-28T03:13:01;31.48;;;20.63;;
40256;SDS011;25977;45.462;9.210;2023-12-28T03:15:27;27.27;;;19.42;;
40256;SDS011;25977;45.462;9.210;2023-12-28T03:17:52;32.65;;;20.58;;
40256;SDS011;25977;45.462;9.210;2023-12-28T03:20:18;33.13;;;20.58;;
40256;SDS011;25977;45.462;9.210;2023-12-28T03:22:45;29.52;;;19.08;;
40256;SDS011;25977;45.462;9.210;2023-12-28T03:25:11;29.23;;;19.05;;
40256;SDS011;25977;45.462;9.210;2023-12-28T03:27:36;30.88;;;20.63;;
40256;SDS011;25977;45.462;9.210;2023-12-28T03:30:02;32.05;;;19.17;;
40256;SDS011;25977;45.462;9.210;2023-12-28T03:32:28;29.77;;;19.52;;
40256;SDS011;25977;45.462;9.210;2023-12-28T03:34:54;32.30;;;21.10;;
40256;SDS011;25977;45.462;9.210;2023-12-28T03:37:19;34.90;;;21.30;;
40256;SDS011;25977;45.462;9.210;2023-12-28T03:39:45;31.13;;;19.58;;
40256;SDS011;25977;45.462;9.210;2023-12-28T03:42:12;37.33;;;21.10;;
40256;SDS011;25977;45.462;9.210;2023-12-28T03:44:38;28.02;;;20.15;;
40256;SDS011;25977;45.462;9.210;2023-12-28T03:47:04;27.65;;;20.23;;
40256;SDS011;25977;45.462;9.210;2023-12-28T03:49:30;37.33;;;19.73;;
40256;SDS011;25977;45.462;9.210;2023-12-28T03:51:55;26.77;;;18.83;;
40256;SDS011;25977;45.462;9.210;2023-12-28T03:54:21;35.35;;;20.48;;
40256;SDS011;25977;45.462;9.210;2023-12-28T03:56:47;29.02;;;21.05;;
40256;SDS011;25977;45.462;9.210;2023-12-28T03:59:13;32.67;;;19.95;;
40256;SDS011;25977;45.462;9.210;2023-12-28T04:01:40;39.58;;;20.42;;
40256;SDS011;25977;45.462;9.210;2023-12-28T04:04:06;28.63;;;19.83;;
40256;SDS011;25977;45.462;9.210;2023-12-28T04:06:32;27.95;;;20.75;;
40256;SDS011;25977;45.462;9.210;2023-12-28T04:08:57;34.20;;;21.23;;
40256;SDS011;25977;45.462;9.210;2023-12-28T04:11:23;30.38;;;19.30;;
40256;SDS011;25977;45.462;9.210;2023-12-28T04:13:49;26.67;;;19.63;;
40256;SDS011;25977;45.462;9.210;2023-12-28T04:16:15;32.65;;;21.42;;
40256;SDS011;25977;45.462;9.210;2023-12-28T04:18:41;32.20;;;20.67;;
40256;SDS011;25977;45.462;9.210;2023-12-28T04:21:09;34.55;;;19.52;;
40256;SDS011;25977;45.462;9.210;2023-12-28T04:23:36;31.75;;;19.60;;
40256;SDS011;25977;45.462;9.210;2023-12-28T04:26:02;37.33;;;22.35;;
40256;SDS011;25977;45.462;9.210;2023-12-28T04:28:28;31.83;;;19.02;;
40256;SDS011;25977;45.462;9.210;2023-12-28T04:30:54;34.28;;;21.77;;
40256;SDS011;25977;45.462;9.210;2023-12-28T04:33:20;30.58;;;19.98;;
40256;SDS011;25977;45.462;9.210;2023-12-28T04:35:46;28.75;;;20.45;;
40256;SDS011;25977;45.462;9.210;2023-12-28T04:38:12;36.85;;;20.38;;
40256;SDS011;25977;45.462;9.210;2023-12-28T04:40:37;35.35;;;18.70;;
40256;SDS011;25977;45.462;9.210;2023-12-28T04:43:03;28.40;;;18.60;;
40256;SDS011;25977;45.462;9.210;2023-12-28T04:45:29;32.97;;;20.23;;
40256;SDS011;25977;45.462;9.210;2023-12-28T04:47:55;28.85;;;19.73;;
40256;SDS011;25977;45.462;9.210;2023-12-28T04:50:20;32.58;;;20.25;;
40256;SDS011;25977;45.462;9.210;2023-12-28T04:52:48;28.75;;;20.77;;
40256;SDS011;25977;45.462;9.210;2023-12-28T04:55:14;29.55;;;19.48;;
40256;SDS011;25977;45.462;9.210;2023-12-28T04:57:42;31.15;;;20.27;;
40256;SDS011;25977;45.462;9.210;2023-12-28T05:00:09;33.10;;;21.17;;
40256;SDS011;25977;45.462;9.210;2023-12-28T05:02:35;29.75;;;19.88;;
40256;SDS011;25977;45.462;9.210;2023-12-28T05:05:01;29.98;;;19.85;;
40256;SDS011;25977;45.462;9.210;2023-12-28T05:07:26;29.75;;;20.15;;
40256;SDS011;25977;45.462;9.210;2023-12-28T05:09:52;33.58;;;19.92;;
40256;SDS011;25977;45.462;9.210;2023-12-28T05:12:18;29.23;;;19.02;;
40256;SDS011;25977;45.462;9.210;2023-12-28T05:14:43;33.35;;;19.23;;
40256;SDS011;25977;45.462;9.210;2023-12-28T05:17:09;29.10;;;19.58;;
40256;SDS011;25977;45.462;9.210;2023-12-28T05:19:34;27.27;;;19.15;;
40256;SDS011;25977;45.462;9.210;2023-12-28T05:22:00;28.85;;;18.73;;
40256;SDS011;25977;45.462;9.210;2023-12-28T05:24:29;28.65;;;19.55;;
40256;SDS011;25977;45.462;9.210;2023-12-28T05:26:54;29.33;;;19.95;;
40256;SDS011;25977;45.462;9.210;2023-12-28T05:29:20;27.40;;;19.65;;
40256;SDS011;25977;45.462;9.210;2023-12-28T05:31:46;33.30;;;20.60;;
40256;SDS011;25977;45.462;9.210;2023-12-28T05:34:11;34.15;;;19.55;;
40256;SDS011;25977;45.462;9.210;2023-12-28T05:36:39;29.67;;;19.05;;
40256;SDS011;25977;45.462;9.210;2023-12-28T05:39:06;29.65;;;19.73;;
40256;SDS011;25977;45.462;9.210;2023-12-28T05:41:34;26.35;;;18.52;;
40256;SDS011;25977;45.462;9.210;2023-12-28T05:44:00;27.25;;;19.40;;
40256;SDS011;25977;45.462;9.210;2023-12-28T05:46:26;27.88;;;19.20;;
40256;SDS011;25977;45.462;9.210;2023-12-28T05:48:51;25.05;;;18.75;;
40256;SDS011;25977;45.462;9.210;2023-12-28T05:51:17;27.13;;;19.65;;
40256;SDS011;25977;45.462;9.210;2023-12-28T05:53:43;33.30;;;20.40;;
40256;SDS011;25977;45.462;9.210;2023-12-28T05:56:09;32.22;;;19.80;;
40256;SDS011;25977;45.462;9.210;2023-12-28T05:58:35;31.33;;;18.50;;
40256;SDS011;25977;45.462;9.210;2023-12-28T06:01:01;29.95;;;19.88;;
40256;SDS011;25977;45.462;9.210;2023-12-28T06:03:30;27.05;;;19.48;;
40256;SDS011;25977;45.462;9.210;2023-12-28T06:05:56;23.75;;;16.88;;
40256;SDS011;25977;45.462;9.210;2023-12-28T06:08:22;26.85;;;19.15;;
40256;SDS011;25977;45.462;9.210;2023-12-28T06:10:47;27.90;;;19.45;;
40256;SDS011;25977;45.462;9.210;2023-12-28T06:13:13;31.73;;;19.25;;
40256;SDS011;25977;45.462;9.210;2023-12-28T06:15:40;36.45;;;19.85;;
40256;SDS011;25977;45.462;9.210;2023-12-28T06:18:05;28.40;;;20.65;;
40256;SDS011;25977;45.462;9.210;2023-12-28T06:20:31;27.20;;;18.58;;
40256;SDS011;25977;45.462;9.210;2023-12-28T06:22:57;29.75;;;19.08;;
40256;SDS011;25977;45.462;9.210;2023-12-28T06:25:23;29.90;;;20.48;;
40256;SDS011;25977;45.462;9.210;2023-12-28T06:27:48;26.15;;;18.38;;
40256;SDS011;25977;45.462;9.210;2023-12-28T06:30:14;30.77;;;19.33;;
40256;SDS011;25977;45.462;9.210;2023-12-28T06:32:40;28.88;;;19.48;;
40256;SDS011;25977;45.462;9.210;2023-12-28T06:35:06;30.25;;;20.77;;
40256;SDS011;25977;45.462;9.210;2023-12-28T06:37:32;28.10;;;18.63;;
40256;SDS011;25977;45.462;9.210;2023-12-28T06:39:57;26.40;;;18.02;;
40256;SDS011;25977;45.462;9.210;2023-12-28T06:42:23;25.25;;;18.23;;
40256;SDS011;25977;45.462;9.210;2023-12-28T06:44:49;35.50;;;21.65;;
40256;SDS011;25977;45.462;9.210;2023-12-28T06:47:14;30.67;;;20.63;;
40256;SDS011;25977;45.462;9.210;2023-12-28T06:49:40;28.73;;;17.35;;
40256;SDS011;25977;45.462;9.210;2023-12-28T06:52:06;29.80;;;19.80;;
40256;SDS011;25977;45.462;9.210;2023-12-28T06:54:31;26.70;;;17.90;;
40256;SDS011;25977;45.462;9.210;2023-12-28T06:56:57;25.95;;;17.15;;
40256;SDS011;25977;45.462;9.210;2023-12-28T06:59:23;28.83;;;16.85;;
40256;SDS011;25977;45.462;9.210;2023-12-28T07:01:48;36.50;;;18.55;;
40256;SDS011;25977;45.462;9.210;2023-12-28T07:04:14;29.45;;;19.40;;
40256;SDS011;25977;45.462;9.210;2023-12-28T07:06:40;29.45;;;17.17;;
40256;SDS011;25977;45.462;9.210;2023-12-28T07:09:06;27.92;;;19.30;;
40256;SDS011;25977;45.462;9.210;2023-12-28T07:11:31;25.35;;;17.48;;
40256;SDS011;25977;45.462;9.210;2023-12-28T07:13:57;24.77;;;18.15;;
40256;SDS011;25977;45.462;9.210;2023-12-28T07:16:23;30.75;;;19.55;;
40256;SDS011;25977;45.462;9.210;2023-12-28T07:18:48;31.52;;;17.40;;
40256;SDS011;25977;45.462;9.210;2023-12-28T07:21:14;25.83;;;17.15;;
40256;SDS011;25977;45.462;9.210;2023-12-28T07:23:40;29.42;;;17.58;;
40256;SDS011;25977;45.462;9.210;2023-12-28T07:26:05;21.45;;;16.08;;
40256;SDS011;25977;45.462;9.210;2023-12-28T07:28:31;28.67;;;18.98;;
40256;SDS011;25977;45.462;9.210;2023-12-28T07:30:57;29.23;;;18.27;;
40256;SDS011;25977;45.462;9.210;2023-12-28T07:33:22;25.38;;;17.48;;
40256;SDS011;25977;45.462;9.210;2023-12-28T07:35:48;25.35;;;16.13;;
40256;SDS011;25977;45.462;9.210;2023-12-28T07:38:14;26.23;;;16.95;;
40256;SDS011;25977;45.462;9.210;2023-12-28T07:40:40;29.98;;;17.67;;
40256;SDS011;25977;45.462;9.210;2023-12-28T07:43:06;21.45;;;15.43;;
40256;SDS011;25977;45.462;9.210;2023-12-28T07:45:31;23.15;;;16.10;;
40256;SDS011;25977;45.462;9.210;2023-12-28T07:48:01;26.65;;;15.23;;
40256;SDS011;25977;45.462;9.210;2023-12-28T07:50:26;20.55;;;14.82;;
40256;SDS011;25977;45.462;9.210;2023-12-28T07:52:52;21.80;;;14.68;;
40256;SDS011;25977;45.462;9.210;2023-12-28T07:55:18;26.33;;;15.77;;
40256;SDS011;25977;45.462;9.210;2023-12-28T07:57:44;25.90;;;14.45;;
40256;SDS011;25977;45.462;9.210;2023-12-28T08:00:10;26.42;;;15.52;;
40256;SDS011;25977;45.462;9.210;2023-12-28T08:02:36;20.88;;;13.63;;
40256;SDS011;25977;45.462;9.210;2023-12-28T08:05:02;25.92;;;15.40;;
40256;SDS011;25977;45.462;9.210;2023-12-28T08:07:29;24.65;;;15.52;;
40256;SDS011;25977;45.462;9.210;2023-12-28T08:09:54;28.50;;;15.35;;
40256;SDS011;25977;45.462;9.210;2023-12-28T08:12:20;35.75;;;17.98;;
40256;SDS011;25977;45.462;9.210;2023-12-28T08:14:46;24.10;;;15.45;;
40256;SDS011;25977;45.462;9.210;2023-12-28T08:17:12;21.10;;;13.85;;
40256;SDS011;25977;45.462;9.210;2023-12-28T08:19:37;21.25;;;13.30;;
40256;SDS011;25977;45.462;9.210;2023-12-28T08:22:03;17.25;;;12.75;;
40256;SDS011;25977;45.462;9.210;2023-12-28T08:24:29;23.25;;;12.90;;
40256;SDS011;25977;45.462;9.210;2023-12-28T08:26:55;24.08;;;14.77;;
40256;SDS011;25977;45.462;9.210;2023-12-28T08:29:25;27.13;;;14.13;;
40256;SDS011;25977;45.462;9.210;2023-12-28T08:31:51;19.38;;;12.70;;
40256;SDS011;25977;45.462;9.210;2023-12-28T08:34:16;17.88;;;12.82;;
40256;SDS011;25977;45.462;9.210;2023-12-28T08:36:42;20.92;;;12.77;;
40256;SDS011;25977;45.462;9.210;2023-12-28T08:39:08;23.13;;;13.13;;
40256;SDS011;25977;45.462;9.210;2023-12-28T08:41:33;21.98;;;12.73;;
40256;SDS011;25977;45.462;9.210;2023-12-28T08:43:59;16.95;;;13.07;;
40256;SDS011;25977;45.462;9.210;2023-12-28T08:46:24;16.27;;;12.77;;
40256;SDS011;25977;45.462;9.210;2023-12-28T08:48:50;18.13;;;11.88;;
40256;SDS011;25977;45.462;9.210;2023-12-28T08:51:16;12.85;;;10.30;;
40256;SDS011;25977;45.462;9.210;2023-12-28T08:53:42;18.67;;;11.90;;
40256;SDS011;25977;45.462;9.210;2023-12-28T08:56:17;19.60;;;10.07;;
40256;SDS011;25977;45.462;9.210;2023-12-28T08:58:46;18.52;;;10.10;;
40256;SDS011;25977;45.462;9.210;2023-12-28T09:01:16;16.13;;;9.60;;
40256;SDS011;25977;45.462;9.210;2023-12-28T09:03:43;13.68;;;9.82;;
40256;SDS011;25977;45.462;9.210;2023-12-28T09:06:08;20.02;;;10.23;;
40256;SDS011;25977;45.462;9.210;2023-12-28T09:08:34;16.30;;;9.75;;
40256;SDS011;25977;45.462;9.210;2023-12-28T09:11:00;16.20;;;11.50;;
40256;SDS011;25977;45.462;9.210;2023-12-28T09:13:26;16.63;;;10.90;;
40256;SDS011;25977;45.462;9.210;2023-12-28T09:15:51;13.55;;;10.98;;
40256;SDS011;25977;45.462;9.210;2023-12-28T09:18:17;14.65;;;11.70;;
40256;SDS011;25977;45.462;9.210;2023-12-28T09:20:43;23.40;;;12.38;;
40256;SDS011;25977;45.462;9.210;2023-12-28T09:23:08;19.80;;;12.10;;
40256;SDS011;25977;45.462;9.210;2023-12-28T09:25:35;18.30;;;11.18;;
40256;SDS011;25977;45.462;9.210;2023-12-28T09:28:04;21.02;;;11.60;;
40256;SDS011;25977;45.462;9.210;2023-12-28T09:30:30;17.83;;;10.55;;
40256;SDS011;25977;45.462;9.210;2023-12-28T09:32:56;19.00;;;10.48;;
40256;SDS011;25977;45.462;9.210;2023-12-28T09:35:21;22.23;;;10.45;;
40256;SDS011;25977;45.462;9.210;2023-12-28T09:37:47;21.42;;;11.65;;
40256;SDS011;25977;45.462;9.210;2023-12-28T09:40:13;15.95;;;11.27;;
40256;SDS011;25977;45.462;9.210;2023-12-28T09:42:43;17.00;;;11.52;;
40256;SDS011;25977;45.462;9.210;2023-12-28T09:45:18;19.83;;;11.93;;
40256;SDS011;25977;45.462;9.210;2023-12-28T09:47:46;23.27;;;12.10;;
40256;SDS011;25977;45.462;9.210;2023-12-28T09:50:13;17.65;;;12.45;;
40256;SDS011;25977;45.462;9.210;2023-12-28T09:52:42;21.52;;;12.20;;
40256;SDS011;25977;45.462;9.210;2023-12-28T09:55:08;18.27;;;12.45;;
40256;SDS011;25977;45.462;9.210;2023-12-28T09:57:34;19.65;;;11.43;;
40256;SDS011;25977;45.462;9.210;2023-12-28T10:00:02;14.60;;;10.98;;
40256;SDS011;25977;45.462;9.210;2023-12-28T10:02:37;13.05;;;10.57;;
40256;SDS011;25977;45.462;9.210;2023-12-28T10:05:06;20.38;;;11.07;;
40256;SDS011;25977;45.462;9.210;2023-12-28T10:07:32;15.00;;;11.20;;
40256;SDS011;25977;45.462;9.210;2023-12-28T10:10:05;19.48;;;12.02;;
40256;SDS011;25977;45.462;9.210;2023-12-28T10:12:32;15.45;;;11.68;;
40256;SDS011;25977;45.462;9.210;2023-12-28T10:14:58;17.75;;;12.48;;
40256;SDS011;25977;45.462;9.210;2023-12-28T10:17:25;20.08;;;12.25;;
40256;SDS011;25977;45.462;9.210;2023-12-28T10:19:52;15.77;;;13.02;;
40256;SDS011;25977;45.462;9.210;2023-12-28T10:22:18;22.55;;;12.40;;
40256;SDS011;25977;45.462;9.210;2023-12-28T10:24:45;18.63;;;12.05;;
40256;SDS011;25977;45.462;9.210;2023-12-28T10:27:10;16.27;;;12.10;;
40256;SDS011;25977;45.462;9.210;2023-12-28T10:29:40;23.85;;;12.50;;
40256;SDS011;25977;45.462;9.210;2023-12-28T10:32:07;20.80;;;13.20;;
40256;SDS011;25977;45.462;9.210;2023-12-28T10:34:33;21.17;;;12.50;;
40256;SDS011;25977;45.462;9.210;2023-12-28T10:36:59;22.70;;;13.15;;
40256;SDS011;25977;45.462;9.210;2023-12-28T10:39:27;22.27;;;15.40;;
40256;SDS011;25977;45.462;9.210;2023-12-28T10:41:55;22.67;;;12.27;;
40256;SDS011;25977;45.462;9.210;2023-12-28T10:44:23;24.30;;;13.30;;
40256;SDS011;25977;45.462;9.210;2023-12-28T10:46:54;20.23;;;12.57;;
40256;SDS011;25977;45.462;9.210;2023-12-28T10:49:23;17.10;;;11.15;;
40256;SDS011;25977;45.462;9.210;2023-12-28T10:51:51;16.00;;;11.45;;
40256;SDS011;25977;45.462;9.210;2023-12-28T11:00:11;17.98;;;10.93;;
40256;SDS011;25977;45.462;9.210;2023-12-28T11:02:48;16.42;;;10.93;;
40256;SDS011;25977;45.462;9.210;2023-12-28T11:05:19;15.63;;;11.13;;
40256;SDS011;25977;45.462;9.210;2023-12-28T11:07:47;19.35;;;9.30;;
40256;SDS011;25977;45.462;9.210;2023-12-28T11:10:15;23.45;;;11.10;;
40256;SDS011;25977;45.462;9.210;2023-12-28T11:12:42;22.35;;;10.80;;
40256;SDS011;25977;45.462;9.210;2023-12-28T11:15:09;27.42;;;14.80;;
40256;SDS011;25977;45.462;9.210;2023-12-28T11:17:37;27.42;;;15.55;;
40256;SDS011;25977;45.462;9.210;2023-12-28T11:20:03;29.70;;;15.85;;
40256;SDS011;25977;45.462;9.210;2023-12-28T11:22:32;22.83;;;15.25;;
40256;SDS011;25977;45.462;9.210;2023-12-28T11:24:59;28.67;;;18.50;;
40256;SDS011;25977;45.462;9.210;2023-12-28T11:27:25;25.55;;;18.25;;
40256;SDS011;25977;45.462;9.210;2023-12-28T11:29:58;26.30;;;17.52;;
40256;SDS011;25977;45.462;9.210;2023-12-28T11:32:23;28.88;;;17.15;;
40256;SDS011;25977;45.462;9.210;2023-12-28T11:34:58;36.20;;;18.33;;
40256;SDS011;25977;45.462;9.210;2023-12-28T11:37:24;25.15;;;15.63;;
40256;SDS011;25977;45.462;9.210;2023-12-28T11:39:51;23.23;;;14.85;;
40256;SDS011;25977;45.462;9.210;2023-12-28T11:42:21;22.05;;;15.15;;
40256;SDS011;25977;45.462;9.210;2023-12-28T11:44:48;24.25;;;15.82;;
40256;SDS011;25977;45.462;9.210;2023-12-28T11:47:23;22.23;;;16.08;;
40256;SDS011;25977;45.462;9.210;2023-12-28T11:49:50;28.88;;;14.77;;
40256;SDS011;25977;45.462;9.210;2023-12-28T11:52:26;28.02;;;15.57;;
40256;SDS011;25977;45.462;9.210;2023-12-28T11:54:53;21.02;;;14.88;;
40256;SDS011;25977;45.462;9.210;2023-12-28T11:57:19;24.00;;;14.18;;
40256;SDS011;25977;45.462;9.210;2023-12-28T11:59:47;19.92;;;12.52;;
40256;SDS011;25977;45.462;9.210;2023-12-28T12:02:18;21.50;;;13.75;;
40256;SDS011;25977;45.462;9.210;2023-12-28T12:04:44;19.70;;;12.60;;
40256;SDS011;25977;45.462;9.210;2023-12-28T12:07:10;20.80;;;13.30;;
40256;SDS011;25977;45.462;9.210;2023-12-28T12:09:35;20.60;;;13.10;;
40256;SDS011;25977;45.462;9.210;2023-12-28T12:12:04;22.55;;;12.20;;
40256;SDS011;25977;45.462;9.210;2023-12-28T12:14:31;27.05;;;14.40;;
40256;SDS011;25977;45.462;9.210;2023-12-28T12:16:57;19.02;;;12.57;;
40256;SDS011;25977;45.462;9.210;2023-12-28T12:19:29;20.80;;;14.13;;
40256;SDS011;25977;45.462;9.210;2023-12-28T12:21:55;22.55;;;13.45;;
40256;SDS011;25977;45.462;9.210;2023-12-28T12:24:22;28.30;;;14.43;;
40256;SDS011;25977;45.462;9.210;2023-12-28T12:26:51;19.95;;;14.27;;
40256;SDS011;25977;45.462;9.210;2023-12-28T12:29:18;20.20;;;14.35;;
40256;SDS011;25977;45.462;9.210;2023-12-28T12:31:44;20.65;;;15.13;;
40256;SDS011;25977;45.462;9.210;2023-12-28T12:34:15;36.15;;;15.00;;
40256;SDS011;25977;45.462;9.210;2023-12-28T12:36:41;22.80;;;14.45;;
40256;SDS011;25977;45.462;9.210;2023-12-28T12:39:09;17.65;;;12.95;;
40256;SDS011;25977;45.462;9.210;2023-12-28T12:41:36;17.25;;;13.05;;
40256;SDS011;25977;45.462;9.210;2023-12-28T12:44:02;22.98;;;15.68;;
40256;SDS011;25977;45.462;9.210;2023-12-28T12:46:29;23.20;;;15.50;;
40256;SDS011;25977;45.462;9.210;2023-12-28T12:48:59;21.13;;;13.85;;
40256;SDS011;25977;45.462;9.210;2023-12-28T12:51:27;22.02;;;13.45;;
40256;SDS011;25977;45.462;9.210;2023-12-28T12:53:57;25.90;;;16.15;;
40256;SDS011;25977;45.462;9.210;2023-12-28T12:56:23;19.17;;;13.07;;
40256;SDS011;25977;45.462;9.210;2023-12-28T12:58:49;26.05;;;15.27;;
40256;SDS011;25977;45.462;9.210;2023-12-28T13:01:15;26.48;;;14.45;;
40256;SDS011;25977;45.462;9.210;2023-12-28T13:03:41;24.50;;;13.52;;
40256;SDS011;25977;45.462;9.210;2023-12-28T13:06:06;20.95;;;12.70;;
40256;SDS011;25977;45.462;9.210;2023-12-28T13:08:33;18.40;;;12.73;;
40256;SDS011;25977;45.462;9.210;2023-12-28T13:10:58;24.67;;;13.20;;
40256;SDS011;25977;45.462;9.210;2023-12-28T13:13:24;20.30;;;13.48;;
40256;SDS011;25977;45.462;9.210;2023-12-28T13:15:50;24.88;;;13.65;;
40256;SDS011;25977;45.462;9.210;2023-12-28T13:18:15;19.83;;;13.30;;
40256;SDS011;25977;45.462;9.210;2023-12-28T13:20:41;22.85;;;12.98;;
40256;SDS011;25977;45.462;9.210;2023-12-28T13:23:09;24.52;;;13.80;;
40256;SDS011;25977;45.462;9.210;2023-12-28T13:25:35;21.08;;;13.30;;
40256;SDS011;25977;45.462;9.210;2023-12-28T13:28:01;19.90;;;13.65;;
40256;SDS011;25977;45.462;9.210;2023-12-28T13:30:26;20.00;;;13.35;;
40256;SDS011;25977;45.462;9.210;2023-12-28T13:32:54;21.80;;;12.30;;
40256;SDS011;25977;45.462;9.210;2023-12-28T13:35:21;18.15;;;12.52;;
40256;SDS011;25977;45.462;9.210;2023-12-28T13:37:47;15.95;;;11.70;;
40256;SDS011;25977;45.462;9.210;2023-12-28T13:40:13;16.63;;;12.30;;
40256;SDS011;25977;45.462;9.210;2023-12-28T13:42:39;17.02;;;11.73;;
40256;SDS011;25977;45.462;9.210;2023-12-28T13:45:04;19.63;;;12.88;;
40256;SDS011;25977;45.462;9.210;2023-12-28T13:47:36;22.17;;;13.10;;
40256;SDS011;25977;45.462;9.210;2023-12-28T13:50:02;17.17;;;13.02;;
40256;SDS011;25977;45.462;9.210;2023-12-28T13:52:28;20.52;;;11.90;;
40256;SDS011;25977;45.462;9.210;2023-12-28T13:54:53;16.77;;;11.82;;
40256;SDS011;25977;45.462;9.210;2023-12-28T13:57:19;19.75;;;11.20;;
40256;SDS011;25977;45.462;9.210;2023-12-28T13:59:45;18.52;;;11.70;;
40256;SDS011;25977;45.462;9.210;2023-12-28T14:02:10;21.05;;;11.35;;
40256;SDS011;25977;45.462;9.210;2023-12-28T14:04:36;24.70;;;13.30;;
40256;SDS011;25977;45.462;9.210;2023-12-28T14:07:02;16.02;;;11.75;;
40256;SDS011;25977;45.462;9.210;2023-12-28T14:09:28;22.02;;;13.07;;
40256;SDS011;25977;45.462;9.210;2023-12-28T14:11:55;25.38;;;12.60;;
40256;SDS011;25977;45.462;9.210;2023-12-28T14:14:21;21.20;;;12.02;;
40256;SDS011;25977;45.462;9.210;2023-12-28T14:16:46;19.02;;;12.25;;
40256;SDS011;25977;45.462;9.210;2023-12-28T14:19:12;14.90;;;11.85;;
40256;SDS011;25977;45.462;9.210;2023-12-28T14:21:38;17.02;;;12.10;;